Thomas G. Thompson — KTDQ — position and weather

sailwx.info

Track history (hours):
 
Tides and Currents Weather Stations Pressure Air Temp Water Temp Dewpoint Dewpoint Depression Visibility Wind Speed Wind Dir Waves Ship Positions

Oceanographic research ship Thomas G. Thompson (USA)

Ship's website: http://www.ocean.washington.edu/vessels/TGT/tgt.html

Detailed information on ship capabilities available from University of Delaware's Ocean Information Center.

Owner: UNIVERSITY OF WASHINGTON, SEATTLE, WA. More information available from US FCC via Universal Licensing System and Coast Guard Vessel Documentation Center.

Last reported at 2015-May-28 01:33 UTC. Time now 2015-May-28 04:05 UTC.
Position N 47°39' W 122°19'.

Type: Other ship. MMSI: 366345000.

Date/timePositionNaut miles runAvg speedWind from/ knotsBaromVisibWave heightAir tempDewpointWater temp
2015-May-28 01:33N 47°39' W 122°19'0 0.0
2015-May-28 00:09N 47°39' W 122°19'0 0.0
2015-May-27 14:21N 47°39' W 122°19'0 0.0
2015-May-27 04:32N 47°39' W 122°19'0 0.0
2015-May-27 00:15N 47°39' W 122°19'0 0.0
2015-May-26 23:33N 47°39' W 122°19'1 0.1
2015-May-26 18:32N 47°39' W 122°20'3 3.0
2015-May-26 17:33N 47°40' W 122°24'1 0.7
2015-May-26 16:33N 47°40' W 122°25'1 0.7
2015-May-26 15:33N 47°41' W 122°25'4 3.7
2015-May-26 14:33N 47°38' W 122°23'0 0.0
2015-May-26 13:28N 47°38' W 122°23'0 0.0
2015-May-26 12:28N 47°38' W 122°23'0 0.0
2015-May-26 11:31N 47°38' W 122°23'0 0.0
2015-May-26 10:31N 47°38' W 122°23'0 0.0
2015-May-26 09:31N 47°38' W 122°23'0 0.0
2015-May-26 08:31N 47°38' W 122°23'0 0.0
2015-May-26 07:31N 47°38' W 122°23'0 0.0
2015-May-26 06:31N 47°38' W 122°23'0 0.0
2015-May-26 05:31N 47°38' W 122°23'0 0.0
2015-May-26 04:31N 47°38' W 122°23'0 0.0
2015-May-26 03:31N 47°38' W 122°23'0 0.0
2015-May-26 02:31N 47°38' W 122°23'0 0.0
2015-May-26 01:10N 47°38' W 122°23'0 0.0
2015-May-26 00:28N 47°38' W 122°23'2 2.7
2015-May-25 23:33N 47°35' W 122°21'0 0.1
2015-May-25 22:28N 47°35' W 122°21'0 0.0
2015-May-25 21:31N 47°35' W 122°21'0 0.0
2015-May-25 20:28N 47°35' W 122°21'0 0.0
2015-May-25 19:31N 47°35' W 122°21'0 0.0
2015-May-25 18:28N 47°35' W 122°21'0 0.0
2015-May-25 17:31N 47°35' W 122°21'0 0.5
2015-May-25 16:33N 47°36' W 122°21'2 2.0
2015-May-25 15:32N 47°38' W 122°23'0 0.0
2015-May-25 14:32N 47°38' W 122°23'0 0.0
2015-May-25 13:32N 47°38' W 122°23'0 0.0
2015-May-25 12:32N 47°38' W 122°23'0 0.0
2015-May-25 11:29N 47°38' W 122°23'0 0.0
2015-May-25 10:29N 47°38' W 122°23'0 0.0
2015-May-25 09:23N 47°38' W 122°23'0 0.0
2015-May-25 08:32N 47°38' W 122°23'0 0.0
2015-May-25 07:32N 47°38' W 122°23'0 0.0
2015-May-25 06:32N 47°38' W 122°23'0 0.0
2015-May-25 05:32N 47°38' W 122°23'0 0.0
2015-May-25 04:29N 47°38' W 122°23'0 0.0
2015-May-25 03:29N 47°38' W 122°23'3 3.1
2015-May-25 02:34N 47°38' W 122°27'4 3.8
2015-May-25 01:34N 47°42' W 122°27'3 2.7
2015-May-25 00:34N 47°45' W 122°27'1212.2
2015-May-24 23:33N 47°56' W 122°33'4 3.9
2015-May-24 22:33N 47°59' W 122°37'13 9.6
2015-May-24 21:10N 48°10' W 122°48'810.5
2015-May-24 20:26N 48°14' W 122°58'3 3.7
2015-May-24 19:33N 48°16' W 123°01'7 5.2
2015-May-24 18:14N 48°14' W 123°11'811.3
2015-May-24 17:33N 48°13' W 123°22'1010.4
2015-May-24 16:33N 48°14' W 123°38'0 0.1
2015-May-24 15:32N 48°14' W 123°38'1210.5
2015-May-24 14:24N 48°14' W 123°55'55 4.7
2015-May-24 02:33N 48°00' W 125°16'9 7.4
2015-May-24 01:23N 47°59' W 125°03'2 2.1
2015-May-24 00:25N 47°58' W 125°01'2 2.3
2015-May-23 23:26N 47°58' W 124°57'0 0.0
2015-May-23 22:17N 47°58' W 124°57'0 0.5
2015-May-23 21:32N 47°58' W 124°57'0 0.2
2015-May-23 20:25N 47°58' W 124°56'38 3.2
2015-May-23 08:31N 47°20' W 124°43'1311.8
2015-May-23 07:23N 47°07' W 124°39'1012.3
2015-May-23 06:33N 46°57' W 124°35'1212.3
2015-May-23 05:34N 46°45' W 124°32'1212.1
2015-May-23 04:33N 46°33' W 124°29'1211.8
2015-May-23 03:34N 46°23' W 124°21'1211.9
2015-May-23 02:33N 46°12' W 124°13'1010.4
2015-May-23 01:34N 46°14' W 123°59'9 9.2
2015-May-23 00:34N 46°13' W 123°45'1211.5
2015-May-22 23:34N 46°16' W 123°29'1111.0
2015-May-22 22:33N 46°09' W 123°18'1313.0
2015-May-22 21:34N 46°07' W 122°59'1312.5
2015-May-22 20:34N 45°57' W 122°48'1313.4
2015-May-22 19:33N 45°44' W 122°46'9 8.8
2015-May-22 18:34N 45°35' W 122°46'2 1.7
2015-May-22 17:33N 45°34' W 122°44'0 0.1
2015-May-22 12:29N 45°34' W 122°43'0 0.0
2015-May-22 11:29N 45°34' W 122°43'0 0.0
2015-May-22 10:29N 45°34' W 122°43'0 0.0
2015-May-22 09:32N 45°34' W 122°43'0 0.0
2015-May-22 08:29N 45°34' W 122°43'0 0.0
2015-May-22 07:29N 45°34' W 122°43'0 0.0
2015-May-22 06:26N 45°34' W 122°43'0 0.0
2015-May-22 05:32N 45°34' W 122°43'0 0.0
2015-May-22 04:32N 45°34' W 122°43'0 0.0
2015-May-22 03:23N 45°34' W 122°43'0 0.0
2015-May-22 02:32N 45°34' W 122°43'0 0.0
2015-May-22 01:16N 45°34' W 122°43'0 0.0
2015-May-22 00:32N 45°34' W 122°43'0 0.0
2015-May-21 23:22N 45°34' W 122°43'0 0.0
2015-May-21 22:28N 45°34' W 122°43'0 0.0
2015-May-21 21:31N 45°34' W 122°43'0 0.0
2015-May-21 20:28N 45°34' W 122°43'0 0.0
2015-May-21 19:22N 45°34' W 122°43'0 0.0
2015-May-21 18:28N 45°34' W 122°43'0 0.0
2015-May-21 17:28N 45°34' W 122°43'0 0.0
2015-May-21 16:28N 45°34' W 122°43'0 0.0
2015-May-21 15:31N 45°34' W 122°43'0 0.0
2015-May-21 14:28N 45°34' W 122°43'0 0.0
2015-May-21 13:28N 45°34' W 122°43'0 0.0
2015-May-21 12:28N 45°34' W 122°43'0 0.0
2015-May-21 11:28N 45°34' W 122°43'0 0.0
2015-May-21 10:31N 45°34' W 122°43'0 0.0
2015-May-21 09:31N 45°34' W 122°43'0 0.0
2015-May-21 08:28N 45°34' W 122°43'0 0.0
2015-May-21 07:28N 45°34' W 122°43'0 0.0
2015-May-21 06:25N 45°34' W 122°43'0 0.0
2015-May-21 05:28N 45°34' W 122°43'0 0.0
2015-May-21 04:28N 45°34' W 122°43'0 0.0
2015-May-21 03:28N 45°34' W 122°43'0 0.0
2015-May-21 01:28N 45°34' W 122°43'0 0.0
2015-May-21 00:25N 45°34' W 122°43'0 0.0
2015-May-20 23:31N 45°34' W 122°43'0 0.0
2015-May-20 22:19N 45°34' W 122°43'0 0.0
2015-May-20 21:25N 45°34' W 122°43'0 0.0
2015-May-20 20:31N 45°34' W 122°43'0 0.0
2015-May-20 19:28N 45°34' W 122°43'0 0.0
2015-May-20 18:31N 45°34' W 122°43'0 0.0
2015-May-20 17:28N 45°34' W 122°43'0 0.0
2015-May-20 16:28N 45°34' W 122°43'0 0.0
2015-May-20 15:16N 45°34' W 122°43'0 0.0
2015-May-20 14:31N 45°34' W 122°43'0 0.0
2015-May-20 13:28N 45°34' W 122°43'0 0.0
2015-May-20 12:25N 45°34' W 122°43'0 0.0
2015-May-20 11:31N 45°34' W 122°43'0 0.0
2015-May-20 10:31N 45°34' W 122°43'0 0.0
2015-May-20 09:13N 45°34' W 122°43'0 0.0
2015-May-20 08:31N 45°34' W 122°43'0 0.0
2015-May-20 07:31N 45°34' W 122°43'0 0.0
2015-May-20 06:22N 45°34' W 122°43'0 0.0
2015-May-20 05:28N 45°34' W 122°43'0 0.0
2015-May-20 04:28N 45°34' W 122°43'0 0.0
2015-May-20 03:22N 45°34' W 122°43'0 0.0
2015-May-20 02:28N 45°34' W 122°43'0 0.0
2015-May-20 01:31N 45°34' W 122°43'0 0.0
2015-May-20 00:28N 45°34' W 122°43'0 0.0
2015-May-19 23:28N 45°34' W 122°43'0 0.0
2015-May-19 22:25N 45°34' W 122°43'0 0.0
2015-May-19 21:28N 45°34' W 122°43'0 0.0
2015-May-19 20:25N 45°34' W 122°43'0 0.0
2015-May-19 19:28N 45°34' W 122°43'0 0.0
2015-May-19 18:25N 45°34' W 122°43'0 0.0
2015-May-19 17:31N 45°34' W 122°43'0 0.0
2015-May-19 16:25N 45°34' W 122°43'0 0.0
2015-May-19 15:28N 45°34' W 122°43'0 0.0
2015-May-19 14:28N 45°34' W 122°43'0 0.0
2015-May-19 13:28N 45°34' W 122°43'0 0.0
2015-May-19 12:19N 45°34' W 122°43'0 0.0
2015-May-19 11:31N 45°34' W 122°43'0 0.0
2015-May-19 10:22N 45°34' W 122°43'0 0.0
2015-May-19 09:25N 45°34' W 122°43'0 0.0
2015-May-19 08:22N 45°34' W 122°43'0 0.0
2015-May-19 07:22N 45°34' W 122°43'0 0.0
2015-May-19 06:28N 45°34' W 122°43'0 0.0
2015-May-19 05:31N 45°34' W 122°43'0 0.0
2015-May-19 04:31N 45°34' W 122°43'0 0.0
2015-May-19 03:22N 45°34' W 122°43'0 0.0
2015-May-19 02:28N 45°34' W 122°43'0 0.0
2015-May-19 01:28N 45°34' W 122°43'0 0.0
2015-May-19 00:25N 45°34' W 122°43'0 0.0
2015-May-18 23:16N 45°34' W 122°43'0 0.0
2015-May-18 22:31N 45°34' W 122°43'0 0.0
2015-May-18 21:31N 45°34' W 122°43'0 0.0
2015-May-18 20:25N 45°34' W 122°43'0 0.0
2015-May-18 19:33N 45°34' W 122°43'0 0.0
2015-May-18 18:33N 45°34' W 122°43'0 0.0
2015-May-18 17:24N 45°34' W 122°43'0 0.0
2015-May-18 16:33N 45°34' W 122°43'0 0.0
2015-May-18 15:27N 45°34' W 122°43'0 0.0
2015-May-18 14:33N 45°34' W 122°43'0 0.0
2015-May-18 13:30N 45°34' W 122°43'0 0.0
2015-May-18 12:30N 45°34' W 122°43'0 0.0
2015-May-18 11:30N 45°34' W 122°43'0 0.0
2015-May-18 10:32N 45°34' W 122°43'0 0.0
2015-May-18 09:32N 45°34' W 122°43'0 0.0
2015-May-18 08:29N 45°34' W 122°43'0 0.0
2015-May-18 07:26N 45°34' W 122°43'0 0.0
2015-May-18 06:32N 45°34' W 122°43'0 0.0
2015-May-18 05:32N 45°34' W 122°43'0 0.0
2015-May-18 04:30N 45°34' W 122°43'0 0.0
2015-May-18 03:32N 45°34' W 122°43'0 0.0
2015-May-18 02:33N 45°34' W 122°43'  
Track history (hours):
 
Tides and Currents Weather Stations Pressure Air Temp Water Temp Dewpoint Dewpoint Depression Visibility Wind Speed Wind Dir Waves Ship Positions

Oceanographic research ship Thomas G. Thompson (USA)

Ship's website: http://www.ocean.washington.edu/vessels/TGT/tgt.html

Detailed information on ship capabilities available from University of Delaware's Ocean Information Center.

Owner: UNIVERSITY OF WASHINGTON, SEATTLE, WA. More information available from US FCC via Universal Licensing System and Coast Guard Vessel Documentation Center.

Last reported at 2015-May-28 01:33 UTC. Time now 2015-May-28 04:05 UTC.
Position N 47°39' W 122°19'.

Type: Other ship. MMSI: 366345000.

Date/timePositionNaut miles runAvg speedWind from/ knotsBaromVisibWave heightAir tempDewpointWater temp
2015-May-28 01:33N 47°39' W 122°19'0 0.0
2015-May-28 00:09N 47°39' W 122°19'0 0.0
2015-May-27 14:21N 47°39' W 122°19'0 0.0
2015-May-27 04:32N 47°39' W 122°19'0 0.0
2015-May-27 00:15N 47°39' W 122°19'0 0.0
2015-May-26 23:33N 47°39' W 122°19'1 0.1
2015-May-26 18:32N 47°39' W 122°20'3 3.0
2015-May-26 17:33N 47°40' W 122°24'1 0.7
2015-May-26 16:33N 47°40' W 122°25'1 0.7
2015-May-26 15:33N 47°41' W 122°25'4 3.7
2015-May-26 14:33N 47°38' W 122°23'0 0.0
2015-May-26 13:28N 47°38' W 122°23'0 0.0
2015-May-26 12:28N 47°38' W 122°23'0 0.0
2015-May-26 11:31N 47°38' W 122°23'0 0.0
2015-May-26 10:31N 47°38' W 122°23'0 0.0
2015-May-26 09:31N 47°38' W 122°23'0 0.0
2015-May-26 08:31N 47°38' W 122°23'0 0.0
2015-May-26 07:31N 47°38' W 122°23'0 0.0
2015-May-26 06:31N 47°38' W 122°23'0 0.0
2015-May-26 05:31N 47°38' W 122°23'0 0.0
2015-May-26 04:31N 47°38' W 122°23'0 0.0
2015-May-26 03:31N 47°38' W 122°23'0 0.0
2015-May-26 02:31N 47°38' W 122°23'0 0.0
2015-May-26 01:10N 47°38' W 122°23'0 0.0
2015-May-26 00:28N 47°38' W 122°23'2 2.7
2015-May-25 23:33N 47°35' W 122°21'0 0.1
2015-May-25 22:28N 47°35' W 122°21'0 0.0
2015-May-25 21:31N 47°35' W 122°21'0 0.0
2015-May-25 20:28N 47°35' W 122°21'0 0.0
2015-May-25 19:31N 47°35' W 122°21'0 0.0
2015-May-25 18:28N 47°35' W 122°21'0 0.0
2015-May-25 17:31N 47°35' W 122°21'0 0.5
2015-May-25 16:33N 47°36' W 122°21'2 2.0
2015-May-25 15:32N 47°38' W 122°23'0 0.0
2015-May-25 14:32N 47°38' W 122°23'0 0.0
2015-May-25 13:32N 47°38' W 122°23'0 0.0
2015-May-25 12:32N 47°38' W 122°23'0 0.0
2015-May-25 11:29N 47°38' W 122°23'0 0.0
2015-May-25 10:29N 47°38' W 122°23'0 0.0
2015-May-25 09:23N 47°38' W 122°23'0 0.0
2015-May-25 08:32N 47°38' W 122°23'0 0.0
2015-May-25 07:32N 47°38' W 122°23'0 0.0
2015-May-25 06:32N 47°38' W 122°23'0 0.0
2015-May-25 05:32N 47°38' W 122°23'0 0.0
2015-May-25 04:29N 47°38' W 122°23'0 0.0
2015-May-25 03:29N 47°38' W 122°23'3 3.1
2015-May-25 02:34N 47°38' W 122°27'4 3.8
2015-May-25 01:34N 47°42' W 122°27'3 2.7
2015-May-25 00:34N 47°45' W 122°27'1212.2
2015-May-24 23:33N 47°56' W 122°33'4 3.9
2015-May-24 22:33N 47°59' W 122°37'13 9.6
2015-May-24 21:10N 48°10' W 122°48'810.5
2015-May-24 20:26N 48°14' W 122°58'3 3.7
2015-May-24 19:33N 48°16' W 123°01'7 5.2
2015-May-24 18:14N 48°14' W 123°11'811.3
2015-May-24 17:33N 48°13' W 123°22'1010.4
2015-May-24 16:33N 48°14' W 123°38'0 0.1
2015-May-24 15:32N 48°14' W 123°38'1210.5
2015-May-24 14:24N 48°14' W 123°55'55 4.7
2015-May-24 02:33N 48°00' W 125°16'9 7.4
2015-May-24 01:23N 47°59' W 125°03'2 2.1
2015-May-24 00:25N 47°58' W 125°01'2 2.3
2015-May-23 23:26N 47°58' W 124°57'0 0.0
2015-May-23 22:17N 47°58' W 124°57'0 0.5
2015-May-23 21:32N 47°58' W 124°57'0 0.2
2015-May-23 20:25N 47°58' W 124°56'38 3.2
2015-May-23 08:31N 47°20' W 124°43'1311.8
2015-May-23 07:23N 47°07' W 124°39'1012.3
2015-May-23 06:33N 46°57' W 124°35'1212.3
2015-May-23 05:34N 46°45' W 124°32'1212.1
2015-May-23 04:33N 46°33' W 124°29'1211.8
2015-May-23 03:34N 46°23' W 124°21'1211.9
2015-May-23 02:33N 46°12' W 124°13'1010.4
2015-May-23 01:34N 46°14' W 123°59'9 9.2
2015-May-23 00:34N 46°13' W 123°45'1211.5
2015-May-22 23:34N 46°16' W 123°29'1111.0
2015-May-22 22:33N 46°09' W 123°18'1313.0
2015-May-22 21:34N 46°07' W 122°59'1312.5
2015-May-22 20:34N 45°57' W 122°48'1313.4
2015-May-22 19:33N 45°44' W 122°46'9 8.8
2015-May-22 18:34N 45°35' W 122°46'2 1.7
2015-May-22 17:33N 45°34' W 122°44'0 0.1
2015-May-22 12:29N 45°34' W 122°43'0 0.0
2015-May-22 11:29N 45°34' W 122°43'0 0.0
2015-May-22 10:29N 45°34' W 122°43'0 0.0
2015-May-22 09:32N 45°34' W 122°43'0 0.0
2015-May-22 08:29N 45°34' W 122°43'0 0.0
2015-May-22 07:29N 45°34' W 122°43'0 0.0
2015-May-22 06:26N 45°34' W 122°43'0 0.0
2015-May-22 05:32N 45°34' W 122°43'0 0.0
2015-May-22 04:32N 45°34' W 122°43'0 0.0
2015-May-22 03:23N 45°34' W 122°43'0 0.0
2015-May-22 02:32N 45°34' W 122°43'0 0.0
2015-May-22 01:16N 45°34' W 122°43'0 0.0
2015-May-22 00:32N 45°34' W 122°43'0 0.0
2015-May-21 23:22N 45°34' W 122°43'0 0.0
2015-May-21 22:28N 45°34' W 122°43'0 0.0
2015-May-21 21:31N 45°34' W 122°43'0 0.0
2015-May-21 20:28N 45°34' W 122°43'0 0.0
2015-May-21 19:22N 45°34' W 122°43'0 0.0
2015-May-21 18:28N 45°34' W 122°43'0 0.0
2015-May-21 17:28N 45°34' W 122°43'0 0.0
2015-May-21 16:28N 45°34' W 122°43'0 0.0
2015-May-21 15:31N 45°34' W 122°43'0 0.0
2015-May-21 14:28N 45°34' W 122°43'0 0.0
2015-May-21 13:28N 45°34' W 122°43'0 0.0
2015-May-21 12:28N 45°34' W 122°43'0 0.0
2015-May-21 11:28N 45°34' W 122°43'0 0.0
2015-May-21 10:31N 45°34' W 122°43'0 0.0
2015-May-21 09:31N 45°34' W 122°43'0 0.0
2015-May-21 08:28N 45°34' W 122°43'0 0.0
2015-May-21 07:28N 45°34' W 122°43'0 0.0
2015-May-21 06:25N 45°34' W 122°43'0 0.0
2015-May-21 05:28N 45°34' W 122°43'0 0.0
2015-May-21 04:28N 45°34' W 122°43'0 0.0
2015-May-21 03:28N 45°34' W 122°43'0 0.0
2015-May-21 01:28N 45°34' W 122°43'0 0.0
2015-May-21 00:25N 45°34' W 122°43'0 0.0
2015-May-20 23:31N 45°34' W 122°43'0 0.0
2015-May-20 22:19N 45°34' W 122°43'0 0.0
2015-May-20 21:25N 45°34' W 122°43'0 0.0
2015-May-20 20:31N 45°34' W 122°43'0 0.0
2015-May-20 19:28N 45°34' W 122°43'0 0.0
2015-May-20 18:31N 45°34' W 122°43'0 0.0
2015-May-20 17:28N 45°34' W 122°43'0 0.0
2015-May-20 16:28N 45°34' W 122°43'0 0.0
2015-May-20 15:16N 45°34' W 122°43'0 0.0
2015-May-20 14:31N 45°34' W 122°43'0 0.0
2015-May-20 13:28N 45°34' W 122°43'0 0.0
2015-May-20 12:25N 45°34' W 122°43'0 0.0
2015-May-20 11:31N 45°34' W 122°43'0 0.0
2015-May-20 10:31N 45°34' W 122°43'0 0.0
2015-May-20 09:13N 45°34' W 122°43'0 0.0
2015-May-20 08:31N 45°34' W 122°43'0 0.0
2015-May-20 07:31N 45°34' W 122°43'0 0.0
2015-May-20 06:22N 45°34' W 122°43'0 0.0
2015-May-20 05:28N 45°34' W 122°43'0 0.0
2015-May-20 04:28N 45°34' W 122°43'0 0.0
2015-May-20 03:22N 45°34' W 122°43'0 0.0
2015-May-20 02:28N 45°34' W 122°43'0 0.0
2015-May-20 01:31N 45°34' W 122°43'0 0.0
2015-May-20 00:28N 45°34' W 122°43'0 0.0
2015-May-19 23:28N 45°34' W 122°43'0 0.0
2015-May-19 22:25N 45°34' W 122°43'0 0.0
2015-May-19 21:28N 45°34' W 122°43'0 0.0
2015-May-19 20:25N 45°34' W 122°43'0 0.0
2015-May-19 19:28N 45°34' W 122°43'0 0.0
2015-May-19 18:25N 45°34' W 122°43'0 0.0
2015-May-19 17:31N 45°34' W 122°43'0 0.0
2015-May-19 16:25N 45°34' W 122°43'0 0.0
2015-May-19 15:28N 45°34' W 122°43'0 0.0
2015-May-19 14:28N 45°34' W 122°43'0 0.0
2015-May-19 13:28N 45°34' W 122°43'0 0.0
2015-May-19 12:19N 45°34' W 122°43'0 0.0
2015-May-19 11:31N 45°34' W 122°43'0 0.0
2015-May-19 10:22N 45°34' W 122°43'0 0.0
2015-May-19 09:25N 45°34' W 122°43'0 0.0
2015-May-19 08:22N 45°34' W 122°43'0 0.0
2015-May-19 07:22N 45°34' W 122°43'0 0.0
2015-May-19 06:28N 45°34' W 122°43'0 0.0
2015-May-19 05:31N 45°34' W 122°43'0 0.0
2015-May-19 04:31N 45°34' W 122°43'0 0.0
2015-May-19 03:22N 45°34' W 122°43'0 0.0
2015-May-19 02:28N 45°34' W 122°43'0 0.0
2015-May-19 01:28N 45°34' W 122°43'0 0.0
2015-May-19 00:25N 45°34' W 122°43'0 0.0
2015-May-18 23:16N 45°34' W 122°43'0 0.0
2015-May-18 22:31N 45°34' W 122°43'0 0.0
2015-May-18 21:31N 45°34' W 122°43'0 0.0
2015-May-18 20:25N 45°34' W 122°43'0 0.0
2015-May-18 19:33N 45°34' W 122°43'0 0.0
2015-May-18 18:33N 45°34' W 122°43'0 0.0
2015-May-18 17:24N 45°34' W 122°43'0 0.0
2015-May-18 16:33N 45°34' W 122°43'0 0.0
2015-May-18 15:27N 45°34' W 122°43'0 0.0
2015-May-18 14:33N 45°34' W 122°43'0 0.0
2015-May-18 13:30N 45°34' W 122°43'0 0.0
2015-May-18 12:30N 45°34' W 122°43'0 0.0
2015-May-18 11:30N 45°34' W 122°43'0 0.0
2015-May-18 10:32N 45°34' W 122°43'0 0.0
2015-May-18 09:32N 45°34' W 122°43'0 0.0
2015-May-18 08:29N 45°34' W 122°43'0 0.0
2015-May-18 07:26N 45°34' W 122°43'0 0.0
2015-May-18 06:32N 45°34' W 122°43'0 0.0
2015-May-18 05:32N 45°34' W 122°43'0 0.0
2015-May-18 04:30N 45°34' W 122°43'0 0.0
2015-May-18 03:32N 45°34' W 122°43'0 0.0
2015-May-18 02:33N 45°34' W 122°43'  

Dump ship's entire track history